Flight Track Log - Related Links

Times and Time Zones

All times are in EDT time to prevent confusion due to time zone crossing. See the ASQ6151 flight status page for this flight to view local times or setup timezone preferences in your user account.

Time Position Orientation Groundspeed Altitude Reporting Facility
EDT Latitude Longitude Course Direction KTS MPH feet Rate Location/Type
Mon 10:23:08 PM 42.0333 -87.9667 270° West 207 238 3,500  Level Chicago TRACON
Mon 10:24:54 PM 42.0672 -88.0972 289° West 278 320 7,700 2,443 Climbing Chicago Center
Mon 10:25:00 PM 41.9667 -88.2719 270° West  Level FlightAware Approximate
Mon 10:25:55 PM 42.0372 -88.1933 247° West 282 325 10,300  Level Chicago Center
Mon 10:26:00 PM 41.9667 -88.3958 270° West  Level FlightAware Approximate
Mon 10:26:56 PM 41.9967 -88.3317 249° West 331 381 11,800  Level Chicago Center
Mon 10:27:00 PM 41.9667 -88.5198 270° West  Level FlightAware Approximate
Mon 10:27:57 PM 41.9567 -88.4583 247° West 368 423 13,500  Level Chicago Center
Mon 10:28:00 PM 41.9667 -88.6438 270° West  Level FlightAware Approximate
Mon 10:28:59 PM 41.8989 -88.5747 236° Southwest 380 437 15,000  Level Chicago Center
Mon 10:30:00 PM 41.8272 -88.6794 227° Southwest 386 444 16,000 492 Climbing Chicago Center
Mon 10:31:01 PM 41.7364 -88.7606 214° Southwest 397 457 16,000  Level Chicago Center
Mon 10:32:02 PM 41.6456 -88.8394 213° Southwest 394 453 16,000  Level Chicago Center
Mon 10:33:04 PM 41.5364 -88.9364 214° Southwest 397 457 16,000  Level Chicago Center
Mon 10:34:05 PM 41.4467 -89.0164 214° Southwest 392 451 16,000  Level Chicago Center
Mon 10:35:06 PM 41.3564 -89.0942 213° Southwest 390 449 16,000  Level Chicago Center
Mon 10:36:07 PM 41.2656 -89.1731 213° Southwest 392 451 16,000 -439 Level Chicago Center
Mon 10:37:09 PM 41.1700 -89.2583 214° Southwest 395 455 15,100 -1,122 Descending Chicago Center
Mon 10:38:10 PM 41.0828 -89.3331 213° Southwest 375 432 13,700 -1,574 Descending Chicago Center
Mon 10:39:11 PM 41.0006 -89.4153 217° Southwest 371 427 11,900 -1,672 Descending Chicago Center
Mon 10:40:12 PM 40.9214 -89.5033 220° Southwest 372 428 10,300 -1,073 Descending Chicago Center
Mon 10:41:14 PM 40.8508 -89.5867 222° Southwest 348 400 9,700 -1,317 Descending Chicago Center
Mon 10:42:15 PM 40.8017 -89.6642 230° Southwest 284 327 7,600 -2,066 Descending Chicago Center

Login

Don't have an account? Register now (free) for customized features, flight alerts, and more!